THY121 OEJN-LTFM
Flight info
| Callsign | THY121 |
|---|---|
| Flight time | 2h 37m |
| Altitude | 36000 |
| Route | MIGDA L677 GESON DCT LAGVI Q777 RASDA M855 TOMBI UM855 SISPI |
| Aircraft | A321/M-SDE3FGHIRWY/LB1 |
Departure
| Time | 2026-05-01 12:45 |
|---|---|
| Airport | King Abdulaziz International Airport (OEJN) |
Arrival
| Time | 2026-05-01 15:22 |
|---|---|
| Airport | İstanbul Airport (LTFM) |
| Time | Latitude | Longitude | Altitude | Speed | Heading |
|---|---|---|---|---|---|
| 2026-05-01 11:46 | 21.67121 | 39.16714 | 31 ft | 0 kts | 189° |
| 2026-05-01 12:03 | 21.67122 | 39.16714 | 31 ft | 0 kts | 189° |
| 2026-05-01 12:24 | 21.67123 | 39.16714 | 31 ft | 0 kts | 189° |
| 2026-05-01 12:33 | 21.67128 | 39.16715 | 30 ft | 4 kts | 191° |
| 2026-05-01 12:33 | 21.67154 | 39.16723 | 29 ft | 4 kts | 202° |
| 2026-05-01 12:33 | 21.67178 | 39.16735 | 29 ft | 4 kts | 214° |
| 2026-05-01 12:33 | 21.67199 | 39.16754 | 28 ft | 4 kts | 232° |
| 2026-05-01 12:34 | 21.67211 | 39.16778 | 28 ft | 4 kts | 262° |
| 2026-05-01 12:34 | 21.67212 | 39.16789 | 28 ft | 2 kts | 276° |
| 2026-05-01 12:37 | 21.67213 | 39.16783 | 28 ft | 2 kts | 276° |
| 2026-05-01 12:37 | 21.67215 | 39.16766 | 30 ft | 4 kts | 276° |
| 2026-05-01 12:38 | 21.67222 | 39.16708 | 30 ft | 12 kts | 278° |
| 2026-05-01 12:38 | 21.67240 | 39.16588 | 30 ft | 20 kts | 283° |
| 2026-05-01 12:38 | 21.67288 | 39.16508 | 30 ft | 12 kts | 334° |
| 2026-05-01 12:38 | 21.67367 | 39.16476 | 30 ft | 13 kts | 339° |
| 2026-05-01 12:39 | 21.67452 | 39.16442 | 30 ft | 13 kts | 339° |
| 2026-05-01 12:39 | 21.67538 | 39.16407 | 30 ft | 13 kts | 333° |
| 2026-05-01 12:39 | 21.67552 | 39.16322 | 30 ft | 13 kts | 252° |
| 2026-05-01 12:39 | 21.67523 | 39.16226 | 30 ft | 14 kts | 252° |
| 2026-05-01 12:40 | 21.67457 | 39.16161 | 30 ft | 14 kts | 189° |
| 2026-05-01 12:40 | 21.67367 | 39.16192 | 31 ft | 14 kts | 156° |
| 2026-05-01 12:40 | 21.67276 | 39.16231 | 31 ft | 14 kts | 160° |
| 2026-05-01 12:40 | 21.67181 | 39.16268 | 31 ft | 15 kts | 160° |
| 2026-05-01 12:41 | 21.67082 | 39.16307 | 31 ft | 15 kts | 160° |
| 2026-05-01 12:41 | 21.66979 | 39.16347 | 32 ft | 16 kts | 160° |
| 2026-05-01 12:41 | 21.66872 | 39.16388 | 32 ft | 17 kts | 160° |
| 2026-05-01 12:41 | 21.66761 | 39.16431 | 32 ft | 17 kts | 160° |
| 2026-05-01 12:42 | 21.66645 | 39.16477 | 32 ft | 18 kts | 160° |
| 2026-05-01 12:42 | 21.66525 | 39.16525 | 32 ft | 19 kts | 160° |
| 2026-05-01 12:42 | 21.66401 | 39.16574 | 31 ft | 19 kts | 160° |
| 2026-05-01 12:42 | 21.66271 | 39.16625 | 31 ft | 16 kts | 160° |
| 2026-05-01 12:43 | 21.66183 | 39.16621 | 30 ft | 14 kts | 225° |
| 2026-05-01 12:43 | 21.66145 | 39.16526 | 31 ft | 14 kts | 257° |
| 2026-05-01 12:43 | 21.66199 | 39.16460 | 30 ft | 0 kts | 339° |
| 2026-05-01 12:44 | 21.66204 | 39.16458 | 30 ft | 4 kts | 339° |
| 2026-05-01 12:44 | 21.67132 | 39.16092 | 36 ft | 131 kts | 340° |
| 2026-05-01 12:45 | 21.69247 | 39.15283 | 651 ft | 173 kts | 339° |
| 2026-05-01 12:45 | 21.70360 | 39.14848 | 1349 ft | 171 kts | 339° |
| 2026-05-01 12:45 | 21.71508 | 39.14390 | 1641 ft | 185 kts | 339° |
| 2026-05-01 12:46 | 21.72778 | 39.13882 | 1755 ft | 205 kts | 339° |
| 2026-05-01 12:46 | 21.74190 | 39.13318 | 1863 ft | 229 kts | 339° |
| 2026-05-01 12:46 | 21.75756 | 39.12694 | 2118 ft | 249 kts | 339° |
| 2026-05-01 12:46 | 21.77398 | 39.12043 | 2655 ft | 257 kts | 339° |
| 2026-05-01 12:47 | 21.79096 | 39.11369 | 3263 ft | 262 kts | 338° |
| 2026-05-01 12:47 | 21.80814 | 39.10690 | 3944 ft | 264 kts | 337° |
| 2026-05-01 12:47 | 21.82553 | 39.10002 | 4561 ft | 268 kts | 337° |
| 2026-05-01 12:47 | 21.84319 | 39.09302 | 5158 ft | 272 kts | 336° |
| 2026-05-01 12:48 | 21.86104 | 39.08596 | 5769 ft | 275 kts | 336° |
| 2026-05-01 12:48 | 21.87917 | 39.07880 | 6028 ft | 280 kts | 336° |
| 2026-05-01 12:48 | 21.89744 | 39.07154 | 6670 ft | 280 kts | 335° |
| 2026-05-01 12:48 | 21.91550 | 39.06361 | 7276 ft | 282 kts | 333° |
| 2026-05-01 12:49 | 21.92743 | 39.05799 | 7675 ft | 283 kts | 332° |
| 2026-05-01 12:49 | 21.95157 | 39.04624 | 8485 ft | 286 kts | 332° |
| 2026-05-01 12:49 | 21.96364 | 39.04032 | 8886 ft | 288 kts | 332° |
| 2026-05-01 12:49 | 21.98202 | 39.03136 | 9481 ft | 292 kts | 332° |
| 2026-05-01 12:50 | 22.00061 | 39.02234 | 10060 ft | 295 kts | 333° |
| 2026-05-01 12:50 | 22.01979 | 39.01309 | 10295 ft | 312 kts | 333° |
| 2026-05-01 12:50 | 22.04018 | 39.00327 | 10428 ft | 331 kts | 333° |
| 2026-05-01 12:50 | 22.06177 | 38.99290 | 10550 ft | 349 kts | 333° |
| 2026-05-01 12:51 | 22.08441 | 38.98206 | 10774 ft | 362 kts | 333° |
| 2026-05-01 12:51 | 22.10763 | 38.97096 | 11204 ft | 367 kts | 333° |
| 2026-05-01 12:51 | 22.15479 | 38.94841 | 12185 ft | 375 kts | 333° |
| 2026-05-01 12:52 | 22.17876 | 38.93691 | 12673 ft | 379 kts | 333° |
| 2026-05-01 12:52 | 22.22743 | 38.91368 | 13653 ft | 386 kts | 333° |
| 2026-05-01 12:52 | 22.25213 | 38.90189 | 14105 ft | 389 kts | 333° |
| 2026-05-01 12:53 | 22.30195 | 38.87805 | 15090 ft | 393 kts | 333° |
| 2026-05-01 12:53 | 22.32698 | 38.86603 | 15584 ft | 395 kts | 333° |
| 2026-05-01 12:53 | 22.35213 | 38.85394 | 16081 ft | 397 kts | 333° |
| 2026-05-01 12:54 | 22.37741 | 38.84178 | 16571 ft | 399 kts | 332° |
| 2026-05-01 12:54 | 22.42840 | 38.81724 | 17556 ft | 403 kts | 332° |
| 2026-05-01 12:54 | 22.45411 | 38.80489 | 18047 ft | 406 kts | 332° |
| 2026-05-01 12:55 | 22.50599 | 38.77996 | 18914 ft | 410 kts | 332° |
| 2026-05-01 12:55 | 22.53179 | 38.76750 | 19339 ft | 413 kts | 332° |
| 2026-05-01 12:55 | 22.55809 | 38.75481 | 19765 ft | 415 kts | 332° |
| 2026-05-01 12:56 | 22.58457 | 38.74206 | 20196 ft | 417 kts | 332° |
| 2026-05-01 12:56 | 22.61114 | 38.72927 | 20612 ft | 419 kts | 332° |
| 2026-05-01 12:56 | 22.63787 | 38.71639 | 21018 ft | 422 kts | 332° |
| 2026-05-01 12:56 | 22.66487 | 38.70367 | 21409 ft | 424 kts | 333° |
| 2026-05-01 12:57 | 22.69222 | 38.69138 | 21798 ft | 427 kts | 333° |
| 2026-05-01 12:57 | 22.74766 | 38.66724 | 22564 ft | 431 kts | 334° |
| 2026-05-01 12:57 | 22.77559 | 38.65515 | 22945 ft | 433 kts | 333° |
| 2026-05-01 12:58 | 22.80361 | 38.64290 | 23320 ft | 435 kts | 333° |
| 2026-05-01 12:58 | 22.83172 | 38.63047 | 23661 ft | 437 kts | 333° |
| 2026-05-01 12:58 | 22.85991 | 38.61794 | 23988 ft | 439 kts | 333° |
| 2026-05-01 12:59 | 22.91650 | 38.59274 | 24679 ft | 441 kts | 333° |
| 2026-05-01 12:59 | 22.94493 | 38.58007 | 25016 ft | 442 kts | 332° |
| 2026-05-01 12:59 | 23.00200 | 38.55458 | 25678 ft | 445 kts | 332° |
| 2026-05-01 13:00 | 23.05943 | 38.52896 | 26328 ft | 448 kts | 332° |
| 2026-05-01 13:00 | 23.08834 | 38.51610 | 26642 ft | 449 kts | 332° |
| 2026-05-01 13:01 | 23.14635 | 38.49028 | 27263 ft | 452 kts | 332° |
| 2026-05-01 13:01 | 23.17547 | 38.47730 | 27587 ft | 453 kts | 332° |
| 2026-05-01 13:01 | 23.23363 | 38.45135 | 28181 ft | 456 kts | 332° |
| 2026-05-01 13:02 | 23.26307 | 38.43817 | 28481 ft | 458 kts | 332° |
| 2026-05-01 13:07 | 23.86581 | 38.16716 | 35177 ft | 434 kts | 329° |
| 2026-05-01 13:07 | 23.89368 | 38.15460 | 35424 ft | 433 kts | 329° |
| 2026-05-01 13:07 | 23.92149 | 38.14206 | 35629 ft | 432 kts | 329° |
| 2026-05-01 13:08 | 23.94922 | 38.12951 | 35804 ft | 431 kts | 329° |
| 2026-05-01 13:08 | 24.00464 | 38.10441 | 35819 ft | 431 kts | 329° |
| 2026-05-01 13:09 | 24.05996 | 38.07931 | 35816 ft | 431 kts | 329° |
| 2026-05-01 13:09 | 24.11534 | 38.05421 | 35811 ft | 431 kts | 329° |
| 2026-05-01 13:10 | 24.16810 | 38.02498 | 35809 ft | 418 kts | 317° |
| 2026-05-01 13:10 | 24.21606 | 37.98884 | 35814 ft | 418 kts | 318° |
| 2026-05-01 13:11 | 24.26408 | 37.95278 | 35836 ft | 419 kts | 318° |
| 2026-05-01 13:11 | 24.31184 | 37.91696 | 35844 ft | 419 kts | 318° |
| 2026-05-01 13:12 | 24.35989 | 37.88090 | 35865 ft | 418 kts | 317° |
| 2026-05-01 13:12 | 24.40770 | 37.84502 | 35847 ft | 416 kts | 318° |
| 2026-05-01 13:13 | 24.45550 | 37.80908 | 35855 ft | 417 kts | 318° |
| 2026-05-01 13:13 | 24.50337 | 37.77302 | 35868 ft | 417 kts | 317° |
| 2026-05-01 13:14 | 24.55129 | 37.73689 | 35873 ft | 417 kts | 317° |
| 2026-05-01 13:14 | 24.59918 | 37.70071 | 35893 ft | 418 kts | 318° |
| 2026-05-01 13:15 | 24.64703 | 37.66454 | 35907 ft | 417 kts | 318° |
| 2026-05-01 13:15 | 24.69452 | 37.62864 | 35899 ft | 416 kts | 318° |
| 2026-05-01 13:16 | 24.74219 | 37.59264 | 35907 ft | 416 kts | 318° |
| 2026-05-01 13:16 | 24.78985 | 37.55658 | 35909 ft | 416 kts | 317° |
| 2026-05-01 13:17 | 24.88524 | 37.48412 | 35922 ft | 417 kts | 318° |
| 2026-05-01 13:18 | 24.95688 | 37.42970 | 35927 ft | 417 kts | 318° |
| 2026-05-01 13:18 | 25.00462 | 37.39345 | 35935 ft | 417 kts | 318° |
| 2026-05-01 13:19 | 25.05225 | 37.35714 | 35930 ft | 416 kts | 318° |
| 2026-05-01 13:20 | 25.12346 | 37.30285 | 35933 ft | 417 kts | 318° |
| 2026-05-01 13:20 | 25.17118 | 37.26644 | 35934 ft | 417 kts | 318° |
| 2026-05-01 13:21 | 25.24274 | 37.21173 | 35942 ft | 417 kts | 318° |
| 2026-05-01 13:21 | 25.29040 | 37.17523 | 35939 ft | 417 kts | 318° |
| 2026-05-01 13:22 | 25.33804 | 37.13869 | 35932 ft | 416 kts | 318° |
| 2026-05-01 13:22 | 25.38565 | 37.10218 | 35926 ft | 416 kts | 318° |
| 2026-05-01 13:23 | 25.43327 | 37.06564 | 35924 ft | 416 kts | 318° |
| 2026-05-01 13:23 | 25.48081 | 37.02911 | 35920 ft | 416 kts | 318° |
| 2026-05-01 13:24 | 25.52842 | 36.99253 | 35918 ft | 416 kts | 318° |
| 2026-05-01 13:25 | 25.59966 | 36.93770 | 35924 ft | 415 kts | 318° |
| 2026-05-01 13:25 | 25.64703 | 36.90122 | 35910 ft | 413 kts | 318° |
| 2026-05-01 13:26 | 25.69416 | 36.86479 | 35901 ft | 413 kts | 318° |
| 2026-05-01 13:26 | 25.74136 | 36.82837 | 35913 ft | 414 kts | 318° |
| 2026-05-01 13:27 | 25.78858 | 36.79184 | 35918 ft | 414 kts | 318° |
| 2026-05-01 13:27 | 25.85915 | 36.73714 | 35934 ft | 414 kts | 318° |
| 2026-05-01 13:28 | 25.93010 | 36.68212 | 35931 ft | 414 kts | 318° |
| 2026-05-01 13:29 | 26.02434 | 36.60880 | 35917 ft | 413 kts | 318° |
| 2026-05-01 13:31 | 26.16604 | 36.49859 | 35917 ft | 414 kts | 318° |
| 2026-05-01 13:32 | 26.26649 | 36.38792 | 35918 ft | 406 kts | 309° |
| 2026-05-01 13:33 | 26.36412 | 36.27535 | 35904 ft | 405 kts | 308° |
| 2026-05-01 13:34 | 26.44250 | 36.18482 | 35926 ft | 406 kts | 309° |
| 2026-05-01 13:35 | 26.50123 | 36.11675 | 35926 ft | 406 kts | 309° |
| 2026-05-01 13:36 | 26.55334 | 36.05630 | 35930 ft | 406 kts | 309° |
| 2026-05-01 13:36 | 26.61204 | 35.98812 | 35928 ft | 405 kts | 308° |
| 2026-05-01 13:37 | 26.65114 | 35.94262 | 35924 ft | 405 kts | 309° |
| 2026-05-01 13:37 | 26.69021 | 35.89710 | 35920 ft | 405 kts | 308° |
| 2026-05-01 13:38 | 26.74876 | 35.82882 | 35918 ft | 406 kts | 308° |
| 2026-05-01 13:39 | 26.78763 | 35.78351 | 35917 ft | 406 kts | 309° |
| 2026-05-01 13:39 | 26.82671 | 35.73781 | 35921 ft | 406 kts | 309° |
| 2026-05-01 13:40 | 26.86600 | 35.69176 | 35918 ft | 406 kts | 309° |
| 2026-05-01 13:40 | 26.90486 | 35.64629 | 35920 ft | 406 kts | 309° |
| 2026-05-01 13:41 | 26.94395 | 35.60049 | 35922 ft | 406 kts | 309° |
| 2026-05-01 13:41 | 26.98305 | 35.55463 | 35920 ft | 406 kts | 309° |
| 2026-05-01 13:42 | 27.02209 | 35.50870 | 35920 ft | 406 kts | 309° |
| 2026-05-01 13:42 | 27.06110 | 35.46283 | 35913 ft | 406 kts | 309° |
| 2026-05-01 13:43 | 27.10015 | 35.41693 | 35913 ft | 407 kts | 309° |
| 2026-05-01 13:43 | 27.13919 | 35.37098 | 35913 ft | 407 kts | 309° |
| 2026-05-01 13:44 | 27.17825 | 35.32486 | 35904 ft | 407 kts | 309° |
| 2026-05-01 13:44 | 27.21732 | 35.27874 | 35912 ft | 407 kts | 309° |
| 2026-05-01 13:45 | 27.25633 | 35.23256 | 35906 ft | 407 kts | 309° |
| 2026-05-01 13:45 | 27.29529 | 35.18640 | 35910 ft | 407 kts | 309° |
| 2026-05-01 13:46 | 27.33422 | 35.14025 | 35902 ft | 406 kts | 309° |
| 2026-05-01 13:46 | 27.37290 | 35.09443 | 35902 ft | 406 kts | 309° |
| 2026-05-01 13:47 | 27.41176 | 35.04832 | 35925 ft | 406 kts | 309° |
| 2026-05-01 13:47 | 27.45043 | 35.00234 | 35882 ft | 404 kts | 309° |
| 2026-05-01 13:48 | 27.48909 | 34.95634 | 35883 ft | 404 kts | 309° |
| 2026-05-01 13:48 | 27.52810 | 34.91066 | 35894 ft | 405 kts | 311° |
| 2026-05-01 13:49 | 27.56926 | 34.86698 | 35898 ft | 407 kts | 313° |
| 2026-05-01 13:49 | 27.61111 | 34.82399 | 35900 ft | 406 kts | 313° |
| 2026-05-01 13:50 | 27.65257 | 34.78063 | 35900 ft | 406 kts | 312° |
| 2026-05-01 13:50 | 27.69351 | 34.73727 | 35900 ft | 406 kts | 312° |
| 2026-05-01 13:51 | 27.73466 | 34.69355 | 35910 ft | 405 kts | 313° |
| 2026-05-01 13:51 | 27.77572 | 34.64999 | 35901 ft | 404 kts | 313° |
| 2026-05-01 13:52 | 27.81654 | 34.60663 | 35893 ft | 402 kts | 313° |
| 2026-05-01 13:52 | 27.85734 | 34.56320 | 35898 ft | 403 kts | 312° |
| 2026-05-01 13:53 | 27.89823 | 34.51967 | 35904 ft | 404 kts | 313° |
| 2026-05-01 13:53 | 27.95960 | 34.45429 | 35911 ft | 404 kts | 313° |
| 2026-05-01 13:54 | 28.00016 | 34.41033 | 35914 ft | 402 kts | 308° |
| 2026-05-01 13:54 | 28.03566 | 34.36165 | 35916 ft | 401 kts | 306° |
| 2026-05-01 13:55 | 28.07088 | 34.31276 | 35919 ft | 400 kts | 306° |
| 2026-05-01 13:55 | 28.10582 | 34.26428 | 35917 ft | 400 kts | 306° |
| 2026-05-01 13:56 | 28.14110 | 34.21539 | 35975 ft | 401 kts | 306° |
| 2026-05-01 13:56 | 28.17645 | 34.16637 | 35965 ft | 402 kts | 306° |
| 2026-05-01 13:57 | 28.21177 | 34.11731 | 35965 ft | 402 kts | 306° |
| 2026-05-01 13:57 | 28.24710 | 34.06820 | 35973 ft | 401 kts | 306° |
| 2026-05-01 13:58 | 28.28233 | 34.01919 | 35964 ft | 401 kts | 306° |
| 2026-05-01 13:58 | 28.31757 | 33.97009 | 35965 ft | 401 kts | 306° |
| 2026-05-01 13:59 | 28.35277 | 33.92089 | 35983 ft | 401 kts | 307° |
| 2026-05-01 13:59 | 28.38768 | 33.87210 | 35982 ft | 400 kts | 307° |
| 2026-05-01 14:00 | 28.42299 | 33.82275 | 35980 ft | 399 kts | 307° |
| 2026-05-01 14:00 | 28.45776 | 33.77400 | 35977 ft | 400 kts | 307° |
| 2026-05-01 14:01 | 28.49276 | 33.72501 | 35973 ft | 399 kts | 307° |
| 2026-05-01 14:01 | 28.52766 | 33.67602 | 35974 ft | 398 kts | 307° |
| 2026-05-01 14:02 | 28.56240 | 33.62726 | 35958 ft | 394 kts | 307° |
| 2026-05-01 14:02 | 28.59697 | 33.57883 | 35958 ft | 394 kts | 307° |
| 2026-05-01 14:03 | 28.63147 | 33.53032 | 35957 ft | 395 kts | 307° |
| 2026-05-01 14:03 | 28.66598 | 33.48165 | 35959 ft | 395 kts | 306° |
| 2026-05-01 14:04 | 28.70055 | 33.43287 | 35956 ft | 396 kts | 306° |
| 2026-05-01 14:04 | 28.72929 | 33.39232 | 35958 ft | 396 kts | 307° |
| 2026-05-01 14:05 | 28.76967 | 33.33510 | 35948 ft | 396 kts | 306° |
| 2026-05-01 14:05 | 28.80421 | 33.28618 | 35951 ft | 396 kts | 306° |
| 2026-05-01 14:06 | 28.83882 | 33.23721 | 35948 ft | 396 kts | 306° |
| 2026-05-01 14:06 | 28.87337 | 33.18820 | 35949 ft | 396 kts | 306° |
| 2026-05-01 14:07 | 28.90783 | 33.13911 | 35946 ft | 396 kts | 306° |
| 2026-05-01 14:08 | 28.95955 | 33.06556 | 35944 ft | 396 kts | 307° |
| 2026-05-01 14:08 | 28.99401 | 33.01639 | 35944 ft | 396 kts | 306° |
| 2026-05-01 14:09 | 29.02817 | 32.96761 | 35949 ft | 396 kts | 306° |
| 2026-05-01 14:09 | 29.06259 | 32.91841 | 35948 ft | 396 kts | 306° |
| 2026-05-01 14:10 | 29.09913 | 32.86621 | 35952 ft | 395 kts | 306° |
| 2026-05-01 14:10 | 29.16762 | 32.76805 | 35955 ft | 394 kts | 306° |
| 2026-05-01 14:11 | 29.23598 | 32.67005 | 35962 ft | 393 kts | 306° |
| 2026-05-01 14:11 | 29.33787 | 32.52256 | 35983 ft | 393 kts | 306° |
| 2026-05-01 14:12 | 29.40559 | 32.42367 | 35983 ft | 395 kts | 306° |
| 2026-05-01 14:12 | 29.47288 | 32.32531 | 36003 ft | 394 kts | 306° |
| 2026-05-01 14:13 | 29.52948 | 32.24244 | 36000 ft | 393 kts | 306° |
| 2026-05-01 14:13 | 29.60766 | 32.12752 | 36002 ft | 392 kts | 306° |
| 2026-05-01 14:14 | 29.67473 | 32.02882 | 36013 ft | 391 kts | 306° |
| 2026-05-01 14:14 | 29.74152 | 31.93031 | 36015 ft | 390 kts | 306° |
| 2026-05-01 14:15 | 29.80777 | 31.83134 | 36012 ft | 390 kts | 305° |
| 2026-05-01 14:15 | 29.87182 | 31.73051 | 36002 ft | 389 kts | 304° |
| 2026-05-01 14:16 | 29.90737 | 31.68358 | 35996 ft | 393 kts | 319° |
| 2026-05-01 14:16 | 29.95710 | 31.65584 | 35994 ft | 408 kts | 341° |
| 2026-05-01 14:16 | 30.07030 | 31.63541 | 36019 ft | 412 kts | 344° |
| 2026-05-01 14:17 | 30.18375 | 31.61491 | 35970 ft | 413 kts | 344° |
| 2026-05-01 14:17 | 30.29718 | 31.59447 | 35962 ft | 413 kts | 344° |
| 2026-05-01 14:18 | 30.41095 | 31.57399 | 35965 ft | 414 kts | 344° |
| 2026-05-01 14:18 | 30.50540 | 31.55694 | 35959 ft | 414 kts | 344° |
| 2026-05-01 14:19 | 30.63841 | 31.53279 | 35976 ft | 414 kts | 344° |
| 2026-05-01 14:19 | 30.75161 | 31.51233 | 35968 ft | 414 kts | 344° |
| 2026-05-01 14:20 | 30.92195 | 31.48124 | 35962 ft | 411 kts | 343° |
| 2026-05-01 14:21 | 31.03509 | 31.46042 | 35968 ft | 412 kts | 343° |
| 2026-05-01 14:21 | 31.14857 | 31.43966 | 35989 ft | 413 kts | 343° |
| 2026-05-01 14:22 | 31.31906 | 31.40819 | 35996 ft | 413 kts | 343° |
| 2026-05-01 14:22 | 31.41357 | 31.39071 | 35999 ft | 414 kts | 343° |
| 2026-05-01 14:23 | 31.52734 | 31.36959 | 36001 ft | 414 kts | 343° |
| 2026-05-01 14:23 | 31.64275 | 31.35415 | 36021 ft | 420 kts | 348° |
| 2026-05-01 14:24 | 31.75923 | 31.34353 | 36010 ft | 419 kts | 347° |
| 2026-05-01 14:24 | 31.87550 | 31.33113 | 35999 ft | 419 kts | 347° |
| 2026-05-01 14:25 | 31.99173 | 31.31884 | 36002 ft | 419 kts | 347° |
| 2026-05-01 14:25 | 32.10800 | 31.30661 | 36007 ft | 420 kts | 347° |
| 2026-05-01 14:26 | 32.28203 | 31.28784 | 35992 ft | 421 kts | 347° |
| 2026-05-01 14:27 | 32.39883 | 31.27529 | 36003 ft | 422 kts | 347° |
| 2026-05-01 14:27 | 32.51579 | 31.26254 | 35997 ft | 422 kts | 347° |
| 2026-05-01 14:28 | 32.62575 | 31.22816 | 36013 ft | 402 kts | 327° |
| 2026-05-01 14:28 | 32.67592 | 31.19870 | 36003 ft | 403 kts | 328° |
| 2026-05-01 14:28 | 32.77660 | 31.14026 | 35996 ft | 402 kts | 327° |
| 2026-05-01 14:29 | 32.87689 | 31.08142 | 36001 ft | 402 kts | 327° |
| 2026-05-01 14:30 | 33.07754 | 30.96363 | 35994 ft | 404 kts | 330° |
| 2026-05-01 14:30 | 33.13337 | 30.94847 | 36003 ft | 424 kts | 349° |
| 2026-05-01 14:31 | 33.25152 | 30.94459 | 35994 ft | 424 kts | 349° |
| 2026-05-01 14:31 | 33.36962 | 30.94000 | 35973 ft | 424 kts | 349° |
| 2026-05-01 14:32 | 33.48677 | 30.93550 | 35972 ft | 424 kts | 349° |
| 2026-05-01 14:32 | 33.60489 | 30.93119 | 35993 ft | 425 kts | 349° |
| 2026-05-01 14:33 | 33.72326 | 30.92654 | 35985 ft | 426 kts | 349° |
| 2026-05-01 14:33 | 33.84186 | 30.92204 | 35993 ft | 427 kts | 349° |
| 2026-05-01 14:34 | 33.96065 | 30.91759 | 35980 ft | 427 kts | 349° |
| 2026-05-01 14:34 | 34.07908 | 30.91101 | 35990 ft | 426 kts | 348° |
| 2026-05-01 14:35 | 34.19758 | 30.90432 | 35977 ft | 426 kts | 348° |
| 2026-05-01 14:35 | 34.31614 | 30.89806 | 35972 ft | 426 kts | 348° |
| 2026-05-01 14:36 | 34.43474 | 30.89245 | 35971 ft | 427 kts | 348° |
| 2026-05-01 14:36 | 34.55333 | 30.88664 | 35968 ft | 426 kts | 348° |
| 2026-05-01 14:37 | 34.67208 | 30.88118 | 35958 ft | 428 kts | 349° |
| 2026-05-01 14:37 | 34.79130 | 30.87780 | 35977 ft | 429 kts | 349° |
| 2026-05-01 14:38 | 34.90984 | 30.87364 | 35963 ft | 429 kts | 349° |
| 2026-05-01 14:38 | 35.02943 | 30.86969 | 35966 ft | 430 kts | 349° |
| 2026-05-01 14:39 | 35.14917 | 30.86575 | 35980 ft | 430 kts | 349° |
| 2026-05-01 14:39 | 35.26894 | 30.86171 | 35957 ft | 431 kts | 349° |
| 2026-05-01 14:40 | 35.38874 | 30.85776 | 35944 ft | 431 kts | 349° |
| 2026-05-01 14:40 | 35.50866 | 30.85373 | 35931 ft | 431 kts | 349° |
| 2026-05-01 14:41 | 35.62863 | 30.84962 | 35945 ft | 431 kts | 348° |
| 2026-05-01 14:41 | 35.74851 | 30.84233 | 35936 ft | 431 kts | 347° |
| 2026-05-01 14:42 | 35.86774 | 30.83497 | 35903 ft | 431 kts | 347° |
| 2026-05-01 14:42 | 35.98756 | 30.82768 | 35906 ft | 431 kts | 347° |
| 2026-05-01 14:43 | 36.10775 | 30.82163 | 35936 ft | 434 kts | 349° |
| 2026-05-01 14:43 | 36.22859 | 30.81828 | 35938 ft | 434 kts | 349° |
| 2026-05-01 14:44 | 36.34865 | 30.81417 | 35903 ft | 430 kts | 348° |
| 2026-05-01 14:44 | 36.52828 | 30.80816 | 35920 ft | 431 kts | 348° |
| 2026-05-01 14:45 | 36.70876 | 30.80191 | 35957 ft | 433 kts | 348° |
| 2026-05-01 14:46 | 36.82930 | 30.79767 | 35947 ft | 433 kts | 348° |
| 2026-05-01 14:46 | 37.00820 | 30.78525 | 35911 ft | 424 kts | 343° |
| 2026-05-01 14:47 | 37.12494 | 30.76895 | 35946 ft | 426 kts | 344° |
| 2026-05-01 14:48 | 37.30228 | 30.74700 | 35959 ft | 427 kts | 344° |
| 2026-05-01 14:48 | 37.47993 | 30.72389 | 35970 ft | 427 kts | 343° |
| 2026-05-01 14:49 | 37.83782 | 30.67685 | 35993 ft | 433 kts | 344° |
| 2026-05-01 14:50 | 38.31819 | 30.61274 | 35878 ft | 439 kts | 344° |
| 2026-05-01 14:51 | 38.68076 | 30.56376 | 36154 ft | 436 kts | 345° |
| 2026-05-01 14:52 | 38.90606 | 30.48098 | 35969 ft | 420 kts | 325° |
| 2026-05-01 14:52 | 39.00921 | 30.41591 | 36025 ft | 417 kts | 325° |
| 2026-05-01 14:52 | 39.21837 | 30.28115 | 36187 ft | 420 kts | 325° |
| 2026-05-01 14:53 | 39.32345 | 30.21314 | 36084 ft | 426 kts | 325° |
| 2026-05-01 14:53 | 39.52227 | 30.08784 | 35606 ft | 430 kts | 329° |
| 2026-05-01 14:53 | 39.57771 | 30.05825 | 35140 ft | 431 kts | 329° |
| 2026-05-01 14:54 | 39.63301 | 30.02835 | 34668 ft | 430 kts | 329° |
| 2026-05-01 14:54 | 39.68795 | 29.99774 | 33784 ft | 433 kts | 328° |
| 2026-05-01 14:54 | 39.74407 | 29.96601 | 32018 ft | 440 kts | 328° |
| 2026-05-01 14:54 | 39.80105 | 29.93388 | 30112 ft | 451 kts | 329° |
| 2026-05-01 14:55 | 39.85823 | 29.90186 | 28965 ft | 439 kts | 329° |
| 2026-05-01 14:55 | 39.91546 | 29.87455 | 27908 ft | 438 kts | 341° |
| 2026-05-01 14:55 | 39.95544 | 29.86997 | 27531 ft | 435 kts | 353° |
| 2026-05-01 14:56 | 40.20088 | 29.86965 | 24430 ft | 413 kts | 354° |
| 2026-05-01 14:56 | 40.22962 | 29.86959 | 24064 ft | 412 kts | 354° |
| 2026-05-01 14:57 | 40.25816 | 29.86953 | 23692 ft | 409 kts | 354° |
| 2026-05-01 14:57 | 40.31391 | 29.86559 | 22836 ft | 394 kts | 339° |
| 2026-05-01 14:57 | 40.34004 | 29.85547 | 22362 ft | 390 kts | 337° |
| 2026-05-01 14:58 | 40.36591 | 29.84515 | 21904 ft | 387 kts | 337° |
| 2026-05-01 14:58 | 40.39161 | 29.83487 | 21440 ft | 384 kts | 338° |
| 2026-05-01 14:58 | 40.41711 | 29.82469 | 20991 ft | 381 kts | 338° |
| 2026-05-01 14:58 | 40.44239 | 29.81462 | 20522 ft | 379 kts | 338° |
| 2026-05-01 14:59 | 40.46748 | 29.80460 | 20067 ft | 375 kts | 338° |
| 2026-05-01 14:59 | 40.49239 | 29.79465 | 19603 ft | 373 kts | 338° |
| 2026-05-01 14:59 | 40.51713 | 29.78475 | 19143 ft | 370 kts | 338° |
| 2026-05-01 14:59 | 40.54162 | 29.77492 | 18672 ft | 367 kts | 339° |
| 2026-05-01 15:00 | 40.59011 | 29.75542 | 17686 ft | 361 kts | 339° |
| 2026-05-01 15:00 | 40.61410 | 29.74575 | 17190 ft | 358 kts | 339° |
| 2026-05-01 15:00 | 40.63782 | 29.73618 | 16702 ft | 355 kts | 339° |
| 2026-05-01 15:01 | 40.66109 | 29.72678 | 16223 ft | 352 kts | 340° |
| 2026-05-01 15:01 | 40.68441 | 29.71738 | 15747 ft | 349 kts | 340° |
| 2026-05-01 15:01 | 40.70761 | 29.70802 | 15261 ft | 347 kts | 340° |
| 2026-05-01 15:01 | 40.73056 | 29.69880 | 14780 ft | 344 kts | 339° |
| 2026-05-01 15:02 | 40.76550 | 29.68472 | 14037 ft | 341 kts | 340° |
| 2026-05-01 15:02 | 40.77962 | 29.67902 | 13707 ft | 339 kts | 340° |
| 2026-05-01 15:02 | 40.85001 | 29.64067 | 12167 ft | 321 kts | 315° |
| 2026-05-01 15:02 | 40.87117 | 29.59216 | 11806 ft | 296 kts | 282° |
| 2026-05-01 15:03 | 40.87666 | 29.54032 | 11524 ft | 272 kts | 277° |
| 2026-05-01 15:03 | 40.88499 | 29.49433 | 10904 ft | 241 kts | 303° |
| 2026-05-01 15:03 | 40.91291 | 29.46806 | 10985 ft | 263 kts | 349° |
| 2026-05-01 15:03 | 40.94966 | 29.46540 | 10986 ft | 266 kts | 356° |
| 2026-05-01 15:04 | 40.98607 | 29.45943 | 10984 ft | 263 kts | 340° |
| 2026-05-01 15:04 | 41.02087 | 29.44425 | 10987 ft | 264 kts | 341° |
| 2026-05-01 15:04 | 41.05591 | 29.42933 | 10984 ft | 264 kts | 339° |
| 2026-05-01 15:04 | 41.08729 | 29.40538 | 10983 ft | 261 kts | 326° |
| 2026-05-01 15:05 | 41.11795 | 29.37915 | 10985 ft | 261 kts | 326° |
| 2026-05-01 15:05 | 41.14646 | 29.35059 | 10985 ft | 256 kts | 310° |
| 2026-05-01 15:05 | 41.17039 | 29.31499 | 10988 ft | 261 kts | 310° |
| 2026-05-01 15:05 | 41.18042 | 29.27082 | 10991 ft | 261 kts | 259° |
| 2026-05-01 15:06 | 41.15875 | 29.23280 | 10367 ft | 268 kts | 214° |
| 2026-05-01 15:06 | 41.12794 | 29.20544 | 9756 ft | 266 kts | 216° |
| 2026-05-01 15:06 | 41.10463 | 29.18426 | 9307 ft | 266 kts | 216° |
| 2026-05-01 15:06 | 41.08926 | 29.17024 | 9043 ft | 269 kts | 215° |
| 2026-05-01 15:07 | 41.07388 | 29.15621 | 8774 ft | 268 kts | 215° |
| 2026-05-01 15:07 | 41.05840 | 29.14216 | 8513 ft | 272 kts | 215° |
| 2026-05-01 15:07 | 41.04275 | 29.12803 | 8262 ft | 271 kts | 215° |
| 2026-05-01 15:07 | 41.02724 | 29.11400 | 7980 ft | 269 kts | 215° |
| 2026-05-01 15:08 | 41.01171 | 29.09996 | 7716 ft | 271 kts | 214° |
| 2026-05-01 15:08 | 40.99627 | 29.08600 | 7444 ft | 268 kts | 214° |
| 2026-05-01 15:08 | 40.98107 | 29.07232 | 7194 ft | 268 kts | 214° |
| 2026-05-01 15:08 | 40.96557 | 29.05837 | 6939 ft | 270 kts | 214° |
| 2026-05-01 15:09 | 40.94987 | 29.04421 | 6655 ft | 270 kts | 214° |
| 2026-05-01 15:09 | 40.93452 | 29.03038 | 6374 ft | 270 kts | 214° |
| 2026-05-01 15:09 | 40.91989 | 29.01533 | 6175 ft | 261 kts | 226° |
| 2026-05-01 15:09 | 40.90961 | 28.99606 | 5889 ft | 254 kts | 247° |
| 2026-05-01 15:10 | 40.90405 | 28.97399 | 5844 ft | 253 kts | 257° |
| 2026-05-01 15:10 | 40.89471 | 28.92905 | 5718 ft | 256 kts | 258° |
| 2026-05-01 15:10 | 40.88994 | 28.90638 | 5658 ft | 255 kts | 257° |
| 2026-05-01 15:11 | 40.88517 | 28.88377 | 5598 ft | 256 kts | 258° |
| 2026-05-01 15:11 | 40.87676 | 28.83822 | 5472 ft | 251 kts | 272° |
| 2026-05-01 15:11 | 40.87970 | 28.81680 | 5412 ft | 225 kts | 300° |
| 2026-05-01 15:12 | 40.88794 | 28.80043 | 5352 ft | 208 kts | 322° |
| 2026-05-01 15:12 | 40.91187 | 28.78196 | 5265 ft | 196 kts | 341° |
| 2026-05-01 15:12 | 40.92394 | 28.77420 | 5249 ft | 191 kts | 341° |
| 2026-05-01 15:13 | 40.95881 | 28.74756 | 5007 ft | 193 kts | 336° |
| 2026-05-01 15:14 | 40.98277 | 28.73352 | 5010 ft | 184 kts | 359° |
| 2026-05-01 15:14 | 40.99531 | 28.73303 | 5012 ft | 182 kts | 4° |
| 2026-05-01 15:14 | 41.01957 | 28.73249 | 5003 ft | 167 kts | 5° |
| 2026-05-01 15:15 | 41.04106 | 28.73200 | 4733 ft | 143 kts | 6° |
| 2026-05-01 15:15 | 41.06056 | 28.73164 | 4399 ft | 138 kts | 6° |
| 2026-05-01 15:16 | 41.07640 | 28.73134 | 4094 ft | 136 kts | 6° |
| 2026-05-01 15:16 | 41.09524 | 28.73098 | 3717 ft | 135 kts | 6° |
| 2026-05-01 15:17 | 41.11386 | 28.73062 | 3359 ft | 133 kts | 7° |
| 2026-05-01 15:18 | 41.14160 | 28.73009 | 2815 ft | 134 kts | 6° |
| 2026-05-01 15:18 | 41.15095 | 28.72992 | 2618 ft | 135 kts | 6° |
| 2026-05-01 15:19 | 41.17891 | 28.72936 | 2096 ft | 132 kts | 5° |
| 2026-05-01 15:19 | 41.19698 | 28.72901 | 1719 ft | 129 kts | 6° |
| 2026-05-01 15:19 | 41.20593 | 28.72884 | 1533 ft | 128 kts | 6° |
| 2026-05-01 15:20 | 41.22378 | 28.72850 | 1147 ft | 128 kts | 6° |
| 2026-05-01 15:20 | 41.23267 | 28.72833 | 961 ft | 129 kts | 5° |
| 2026-05-01 15:20 | 41.24166 | 28.72816 | 755 ft | 129 kts | 5° |
| 2026-05-01 15:21 | 41.25060 | 28.72793 | 627 ft | 127 kts | 6° |
| 2026-05-01 15:21 | 41.25953 | 28.72779 | 461 ft | 130 kts | 4° |
| 2026-05-01 15:21 | 41.26838 | 28.72754 | 321 ft | 124 kts | 7° |
| 2026-05-01 15:21 | 41.27576 | 28.72753 | 285 ft | 84 kts | 358° |
| 2026-05-01 15:22 | 41.28357 | 28.72670 | 263 ft | 39 kts | 335° |
| 2026-05-01 15:22 | 41.28456 | 28.72573 | 262 ft | 14 kts | 323° |
| 2026-05-01 15:22 | 41.28526 | 28.72454 | 257 ft | 11 kts | 266° |
| 2026-05-01 15:23 | 41.28525 | 28.72368 | 262 ft | 10 kts | 270° |
| 2026-05-01 15:23 | 41.28505 | 28.72264 | 264 ft | 14 kts | 222° |
| 2026-05-01 15:23 | 41.28393 | 28.72255 | 266 ft | 19 kts | 180° |
| 2026-05-01 15:23 | 41.28248 | 28.72258 | 271 ft | 23 kts | 179° |
| 2026-05-01 15:24 | 41.28076 | 28.72261 | 277 ft | 27 kts | 180° |
| 2026-05-01 15:24 | 41.27879 | 28.72264 | 284 ft | 30 kts | 179° |
| 2026-05-01 15:24 | 41.27662 | 28.72268 | 293 ft | 33 kts | 179° |
| 2026-05-01 15:24 | 41.27429 | 28.72275 | 301 ft | 33 kts | 179° |
| 2026-05-01 15:25 | 41.27199 | 28.72277 | 304 ft | 33 kts | 179° |
| 2026-05-01 15:25 | 41.26969 | 28.72284 | 308 ft | 33 kts | 179° |
| 2026-05-01 15:25 | 41.26763 | 28.72285 | 310 ft | 21 kts | 179° |
| 2026-05-01 15:25 | 41.26713 | 28.72305 | 311 ft | 1 kts | 141° |
| 2026-05-01 15:26 | 41.26711 | 28.72325 | 310 ft | 4 kts | 97° |
| 2026-05-01 15:26 | 41.26711 | 28.72338 | 311 ft | 0 kts | 90° |